New Richmond Regional Airport
KRNH : rendu visible

Aérodrome :











RETROUVEZ-NOUS SUR...

 
LOGIN :

S'inscrire | Disclaimer

   EN    FR    IT 

 









Légende :    VFR   VFR Marginal   IFR   IFR Intensif   IFR Très Intensif
Visi : 
Plafond : 
>= 8 km
>= 3000ft
5 à 8 km
1000 à 3000 ft
1500m à 5 km
500 à 1000 ft
800 à 1500m
200 à 500 ft
< 800m
< 200 ft
Symboles :   Orages  Brouillard  Fortes neiges  Fortes précipitations  Vent > 20 kt






- Altitude de l'aérodrome : 998 ft


KRNH - New Richmond Regional

DERNIER METAR :
  • 281815Z AUTO 33014G21KT 10SM CLR 23/05 A2993 RMK AO2 T02280046

METARs EXPIRÉS :
  • 281755Z AUTO 36007KT 10SM CLR 22/07 A2993 RMK AO2 T02200072 10220 20155
  • 281715Z AUTO 34011G15KT 10SM CLR 22/08 A2994 RMK AO2 T02160083
  • 281655Z AUTO 36006G15KT 10SM CLR 21/09 A2994 RMK AO2 T02080090
  • 281635Z AUTO 33007KT 10SM CLR 20/10 A2995 RMK AO2 T01960104
  • 281615Z AUTO 35006G15KT 10SM CLR 18/10 A2996 RMK AO2 T01810097
  • 281555Z AUTO 34008G20KT 10SM BKN110 18/09 A2996 RMK AO2 T01750089
  • 281535Z AUTO 32009KT 10SM BKN090 OVC110 17/10 A2996 RMK AO2 T01650099
  • 281515Z AUTO 33009KT 10SM OVC080 17/10 A2995 RMK AO2 T01680099

TAF KRNH
Valide du 28 à 18h jusqu'au 29 à 18h UTC


281720Z 2818/2918 32011KT P6SM SKC
FM291000 31007KT P6SM FEW090
FM291500 33011KT P6SM FEW024
FM291700 32011KT P6SM SCT035
FIR KZMP / Amérique du Nord



MET'MAP, la Météo Aéronautique d'un coup d'oeil ! - Copyright ORBIFLY Décembre 2007 - Disclaimer

ORBIFLY MET'MAP TEAM :

Programmation & Développement : Alexandra Zaïnal
Sur une idée originale de : Baudouin d'Aumeries
Assistance à la programmation : Marc-Olivier Méhu
Soutien technique & logistique : Manuel Goepfert

Contact : metmap@orbifly.com




SOURCES & CREDITS :

   NOAA       Earth
Advisory